createdAt,value
2022-10-20T00:05:18.597Z,19.36
2022-10-20T00:20:20.883Z,18.5
2022-10-20T00:35:23.440Z,17.99
2022-10-20T00:50:25.790Z,17.74
2022-10-20T01:05:28.309Z,16.91
2022-10-20T01:20:30.980Z,16.87
2022-10-20T01:35:33.282Z,16.12
2022-10-20T01:50:35.494Z,15.78
2022-10-20T02:05:37.768Z,14.98
2022-10-20T02:20:40.037Z,14.72
2022-10-20T02:35:42.217Z,14.38
2022-10-20T02:50:44.659Z,14.06
2022-10-20T03:05:46.863Z,14.08
2022-10-20T03:20:49.066Z,13.65
2022-10-20T03:35:51.370Z,13.36
2022-10-20T03:50:53.589Z,13.31
2022-10-20T04:05:55.859Z,13.15
2022-10-20T04:20:58.339Z,13.04
2022-10-20T04:36:00.568Z,13.13
2022-10-20T04:51:02.856Z,12.63
2022-10-20T05:06:05.057Z,12.4
2022-10-20T05:21:09.303Z,12.28
2022-10-20T05:36:12.411Z,11.76
2022-10-20T05:51:15.270Z,11.96
2022-10-20T06:06:18.045Z,11.64
2022-10-20T06:21:20.283Z,11.5
2022-10-20T06:36:22.532Z,11.26
2022-10-20T06:51:24.718Z,11.19
2022-10-20T07:06:26.901Z,11.24
2022-10-20T07:21:32.559Z,11.1
2022-10-20T07:36:38.607Z,10.9
2022-10-20T07:51:41.038Z,10.8
2022-10-20T08:06:43.273Z,10.81
2022-10-20T08:21:45.634Z,10.91
2022-10-20T08:36:47.910Z,10.69
2022-10-20T08:51:50.329Z,10.32
2022-10-20T09:06:52.556Z,10.4
2022-10-20T09:21:54.791Z,10.06
2022-10-20T09:36:56.992Z,10.12
2022-10-20T09:51:59.221Z,10.33
2022-10-20T10:07:01.497Z,9.87
2022-10-20T10:22:03.795Z,10.14
2022-10-20T10:37:05.973Z,9.89
2022-10-20T10:52:08.337Z,10.14
2022-10-20T11:07:10.541Z,9.99
2022-10-20T11:22:14.352Z,9.99
2022-10-20T11:37:17.696Z,9.7
2022-10-20T11:52:19.914Z,9.43
2022-10-20T12:07:22.200Z,9.27
2022-10-20T12:22:24.657Z,9.71
2022-10-20T12:37:26.916Z,9.25
2022-10-20T12:52:29.097Z,9.31
2022-10-20T13:07:31.375Z,9.53
2022-10-20T13:22:33.745Z,9.31
2022-10-20T13:37:35.967Z,8.83
2022-10-20T13:52:38.459Z,8.96
2022-10-20T14:07:40.883Z,9.12
2022-10-20T14:22:43.117Z,9.13
2022-10-20T14:37:45.311Z,9.19
2022-10-20T14:52:50.301Z,9.18
2022-10-20T15:07:56.085Z,9.8
2022-10-20T15:22:58.441Z,10.53
2022-10-20T15:38:00.938Z,10.47
2022-10-20T15:53:03.108Z,10.63
2022-10-20T16:08:05.453Z,10.53
2022-10-20T16:23:07.922Z,10.73
2022-10-20T16:38:10.163Z,11.09
2022-10-20T16:53:12.431Z,11.08
2022-10-20T17:08:14.718Z,11.33
2022-10-20T17:23:17.130Z,11.43
2022-10-20T17:38:19.372Z,11.73
2022-10-20T17:53:21.594Z,12.12
2022-10-20T18:08:23.779Z,12.25
2022-10-20T18:23:26.016Z,12.25
2022-10-20T18:38:28.223Z,11.97
2022-10-20T18:53:30.603Z,12.49
2022-10-20T19:08:32.914Z,12.7
2022-10-20T19:23:35.388Z,13.36
2022-10-20T19:38:37.683Z,13.7
2022-10-20T19:53:39.884Z,14.92
2022-10-20T20:08:42.364Z,15.26
2022-10-20T20:23:58.772Z,15.58
2022-10-20T20:39:02.363Z,15.78
2022-10-20T20:54:04.561Z,15.81
2022-10-20T21:09:06.971Z,16.3
2022-10-20T21:24:09.427Z,16.71
2022-10-20T21:39:11.670Z,17.69
2022-10-20T21:54:13.927Z,17.67
2022-10-20T22:09:16.258Z,17.7
2022-10-20T22:24:18.480Z,17.74
2022-10-20T22:39:20.721Z,18.75
2022-10-20T22:54:23.126Z,18.53
2022-10-20T23:09:25.388Z,18.65
2022-10-20T23:24:27.717Z,18.22
2022-10-20T23:39:30.043Z,18.42
2022-10-20T23:54:32.298Z,18.22
